Time;durP1;ratioP1;P1;durP2;ratioP2;P2;SDS_P1;SDS_P2;PMS_P1;PMS_P2;Temp;Humidity;BMP_temperature;BMP_pressure;BME280_temperature;BME280_humidity;BME280_pressure;Samples;Min_cycle;Max_cycle;Signal;HPM_P1;HPM_P2
2023/09/08 00:01:58;;;;;;;0.10;0.10;;;15.40;99.90;;;;;;5044065;28;20086;-78
2023/09/08 00:04:24;;;;;;;4.22;2.13;;;15.40;99.90;;;;;;5061374;28;20020;-76
2023/09/08 00:06:50;;;;;;;0.52;0.52;;;15.30;99.90;;;;;;5044325;28;20344;-80
2023/09/08 00:09:16;;;;;;;2.78;2.05;;;15.30;99.90;;;;;;5061379;28;20112;-77
2023/09/08 00:11:41;;;;;;;0.10;0.10;;;15.30;99.90;;;;;;5060658;28;20028;-77
2023/09/08 00:14:07;;;;;;;0.00;0.00;;;15.30;99.90;;;;;;5061393;28;20142;-77
2023/09/08 00:16:33;;;;;;;0.10;0.10;;;15.20;99.90;;;;;;5062841;28;20081;-78
2023/09/08 00:18:59;;;;;;;0.00;0.00;;;15.20;99.90;;;;;;5064205;28;20113;-78
2023/09/08 00:21:25;;;;;;;1.27;1.27;;;15.20;99.90;;;;;;5063296;28;20024;-80
2023/09/08 00:23:52;;;;;;;0.85;0.85;;;13.20;99.90;;;;;;5062655;28;20604;-78
2023/09/08 00:26:17;;;;;;;0.08;0.08;;;15.10;99.90;;;;;;5061708;28;20119;-77
2023/09/08 00:28:43;;;;;;;0.10;0.10;;;15.10;99.90;;;;;;5064131;28;20166;-81
2023/09/08 00:31:09;;;;;;;0.88;0.88;;;15.10;99.90;;;;;;5062987;28;20025;-78
2023/09/08 00:33:35;;;;;;;0.00;0.00;;;;;;;;;;5063290;28;20386;-84
2023/09/08 00:36:01;;;;;;;0.00;0.00;;;14.90;99.90;;;;;;5062996;28;20341;-78
2023/09/08 00:38:27;;;;;;;1.10;1.05;;;14.90;99.90;;;;;;5062866;28;20101;-77
2023/09/08 00:40:52;;;;;;;0.00;0.00;;;14.90;99.90;;;;;;5062667;28;20403;-77
2023/09/08 00:43:18;;;;;;;0.05;0.05;;;14.80;99.90;;;;;;5043621;28;20031;-79
2023/09/08 00:45:46;;;;;;;0.10;0.10;;;14.80;99.90;;;;;;5062502;28;20021;-77
2023/09/08 00:48:12;;;;;;;0.10;0.10;;;14.80;99.90;;;;;;5062374;28;20029;-85
2023/09/08 00:50:39;;;;;;;0.73;0.73;;;14.70;99.90;;;;;;5062113;28;20032;-78
2023/09/08 00:53:06;;;;;;;0.10;0.10;;;14.70;99.90;;;;;;5042948;28;20056;-82
2023/09/08 00:55:32;;;;;;;0.00;0.00;;;14.70;99.90;;;;;;5063457;28;20040;-81
2023/09/08 00:57:59;;;;;;;0.10;0.10;;;14.60;99.90;;;;;;5062874;28;20047;-77
2023/09/08 01:00:26;;;;;;;0.10;0.10;;;14.60;99.90;;;;;;5062913;28;20317;-77
2023/09/08 01:02:52;;;;;;;1.10;1.08;;;14.60;99.90;;;;;;5062650;28;20425;-77
2023/09/08 01:05:18;;;;;;;0.20;0.20;;;14.60;99.90;;;;;;5059833;28;20695;-77
2023/09/08 01:07:46;;;;;;;0.10;0.10;;;14.60;99.90;;;;;;5077037;28;20272;-78
2023/09/08 01:10:12;;;;;;;0.10;0.10;;;14.60;99.90;;;;;;5061260;28;20537;-77
2023/09/08 01:12:38;;;;;;;0.20;0.20;;;14.60;99.90;;;;;;5062057;28;20060;-77
2023/09/08 01:15:06;;;;;;;0.08;0.08;;;14.50;99.90;;;;;;5061622;28;20527;-77
2023/09/08 01:17:32;;;;;;;0.10;0.10;;;14.50;99.90;;;;;;5061411;28;20537;-78
2023/09/08 01:20:16;;;;;;;0.10;0.10;;;14.50;99.90;;;;;;5062149;28;20031;-77
2023/09/08 01:22:41;;;;;;;0.17;0.17;;;14.10;99.90;;;;;;5043890;28;20036;-77
2023/09/08 01:25:26;;;;;;;0.10;0.10;;;14.50;99.90;;;;;;5061920;28;20714;-89
2023/09/08 01:27:58;;;;;;;0.10;0.10;;;14.50;99.90;;;;;;5061429;28;20051;-79
2023/09/08 01:30:26;;;;;;;0.10;0.10;;;14.50;99.90;;;;;;5042486;28;20055;-77
2023/09/08 01:32:54;;;;;;;0.00;0.00;;;14.50;99.90;;;;;;5062134;28;20036;-83
2023/09/08 01:35:20;;;;;;;0.50;0.50;;;14.50;99.90;;;;;;5061833;28;20029;-85
2023/09/08 01:37:48;;;;;;;0.00;0.00;;;14.40;99.90;;;;;;5062382;28;20025;-81
2023/09/08 01:40:14;;;;;;;0.10;0.10;;;14.40;99.90;;;;;;5061708;28;20178;-77
2023/09/08 01:42:41;;;;;;;0.10;0.10;;;14.40;99.90;;;;;;5043131;28;20021;-79
2023/09/08 01:45:07;;;;;;;0.40;0.40;;;14.40;99.90;;;;;;5061373;28;20320;-78
2023/09/08 01:47:33;;;;;;;0.10;0.10;;;14.30;99.90;;;;;;5063264;28;20390;-77
2023/09/08 01:49:59;;;;;;;0.10;0.10;;;14.30;99.90;;;;;;5064018;28;20033;-80
2023/09/08 01:52:26;;;;;;;1.00;1.00;;;14.20;99.90;;;;;;5061964;28;20028;-80
2023/09/08 01:54:51;;;;;;;1.05;1.05;;;14.20;99.90;;;;;;5060573;28;20513;-78
2023/09/08 01:57:18;;;;;;;0.08;0.08;;;;;;;;;;5060310;28;20606;-80
2023/09/08 01:59:44;;;;;;;4.97;4.65;;;14.20;99.90;;;;;;5042353;28;20027;-78
2023/09/08 02:02:11;;;;;;;0.10;0.10;;;14.20;99.90;;;;;;5045196;28;20521;-82
2023/09/08 02:04:37;;;;;;;0.00;0.00;;;14.10;99.90;;;;;;5063960;28;20017;-84
2023/09/08 02:07:04;;;;;;;1.42;1.40;;;14.20;99.90;;;;;;5063609;28;20024;-83
2023/09/08 02:09:35;;;;;;;0.10;0.10;;;14.10;99.90;;;;;;5064489;28;20510;-86
2023/09/08 02:12:01;;;;;;;0.10;0.10;;;14.10;99.90;;;;;;5042916;28;20361;-77
2023/09/08 02:14:27;;;;;;;0.08;0.08;;;14.20;99.90;;;;;;5063740;28;20029;-81
2023/09/08 02:16:54;;;;;;;0.10;0.10;;;13.70;99.90;;;;;;5061600;28;20093;-80
2023/09/08 02:19:19;;;;;;;0.08;0.08;;;14.20;99.90;;;;;;5060919;28;20020;-78
2023/09/08 02:21:45;;;;;;;0.10;0.10;;;14.10;99.90;;;;;;5061695;28;20261;-84
2023/09/08 02:24:11;;;;;;;0.00;0.00;;;14.10;99.90;;;;;;5062432;28;20099;-81
2023/09/08 02:26:38;;;;;;;0.00;0.00;;;14.20;99.90;;;;;;5060381;28;20044;-78
2023/09/08 02:29:04;;;;;;;0.05;0.05;;;14.20;99.90;;;;;;5059284;28;20294;-83
2023/09/08 02:31:30;;;;;;;0.00;0.00;;;14.20;99.90;;;;;;5060471;28;20039;-88
2023/09/08 02:33:56;;;;;;;0.10;0.10;;;14.20;99.90;;;;;;5060197;28;20021;-78
2023/09/08 02:36:25;;;;;;;1.52;0.38;;;14.20;99.90;;;;;;5058960;28;20028;-76
2023/09/08 02:38:55;;;;;;;0.10;0.10;;;14.10;99.90;;;;;;5060241;28;20317;-80
2023/09/08 02:41:21;;;;;;;0.08;0.08;;;14.10;99.90;;;;;;5059154;28;20020;-77
2023/09/08 02:43:47;;;;;;;0.00;0.00;;;14.10;99.90;;;;;;5060567;28;20024;-78
2023/09/08 02:46:13;;;;;;;0.10;0.10;;;14.10;99.90;;;;;;5060010;28;20486;-76
2023/09/08 02:48:39;;;;;;;0.10;0.10;;;14.10;99.90;;;;;;5039579;28;20033;-81
2023/09/08 02:51:05;;;;;;;0.20;0.20;;;14.10;99.90;;;;;;5059465;28;20361;-77
2023/09/08 02:53:31;;;;;;;0.28;0.28;;;14.10;99.90;;;;;;5059963;28;20565;-77
2023/09/08 02:55:57;;;;;;;0.10;0.10;;;14.10;99.90;;;;;;5058196;28;20379;-76
2023/09/08 02:58:23;;;;;;;0.00;0.00;;;14.20;99.90;;;;;;5040688;28;20025;-77
2023/09/08 03:00:51;;;;;;;0.00;0.00;;;14.20;99.90;;;;;;5057695;28;20029;-76
2023/09/08 03:03:17;;;;;;;0.10;0.10;;;14.10;99.90;;;;;;5060317;28;20043;-79
2023/09/08 03:05:42;;;;;;;0.73;0.73;;;14.70;99.90;;;;;;5051236;28;20511;-78
2023/09/08 03:08:08;;;;;;;0.10;0.10;;;14.10;99.90;;;;;;5059852;28;20024;-78
2023/09/08 03:10:34;;;;;;;0.10;0.10;;;14.10;99.90;;;;;;5059790;28;20088;-81
2023/09/08 03:13:00;;;;;;;0.00;0.00;;;14.00;99.90;;;;;;5059881;28;20708;-81
2023/09/08 03:15:28;;;;;;;0.10;0.10;;;14.00;99.90;;;;;;5060087;28;20017;-77
2023/09/08 03:18:00;;;;;;;0.10;0.10;;;13.90;99.90;;;;;;5059024;28;20025;-76
2023/09/08 03:20:28;;;;;;;0.10;0.10;;;11.30;99.90;;;;;;5060593;28;20017;-80
2023/09/08 03:22:54;;;;;;;1.65;1.55;;;13.80;99.90;;;;;;5059259;28;20020;-78
2023/09/08 03:25:20;;;;;;;0.65;0.65;;;13.80;99.90;;;;;;5059270;28;20387;-78
2023/09/08 03:27:46;;;;;;;0.00;0.00;;;13.80;99.90;;;;;;5058806;28;20056;-80
2023/09/08 03:30:12;;;;;;;0.10;0.10;;;13.30;99.90;;;;;;5059303;28;20016;-78
2023/09/08 03:32:38;;;;;;;0.10;0.10;;;13.70;99.90;;;;;;5058760;28;20646;-76
2023/09/08 03:35:08;;;;;;;0.10;0.10;;;13.70;99.90;;;;;;5060316;28;20103;-83
2023/09/08 03:37:40;;;;;;;0.10;0.10;;;13.70;99.90;;;;;;5061393;28;20073;-78
2023/09/08 03:40:07;;;;;;;0.10;0.10;;;13.70;99.90;;;;;;5061734;28;20090;-77
2023/09/08 03:42:34;;;;;;;0.08;0.08;;;13.70;99.90;;;;;;5064133;28;20115;-77
2023/09/08 03:45:00;;;;;;;0.10;0.10;;;13.70;99.90;;;;;;5060553;28;20013;-80
2023/09/08 03:47:26;;;;;;;0.10;0.10;;;;;;;;;;5060839;28;20506;-83
2023/09/08 03:49:52;;;;;;;0.00;0.00;;;13.80;99.90;;;;;;5060588;28;20112;-80
2023/09/08 03:52:18;;;;;;;1.05;1.05;;;13.80;99.90;;;;;;5059701;28;20127;-81
2023/09/08 03:54:46;;;;;;;2.30;2.20;;;13.80;99.90;;;;;;5059389;28;20009;-77
2023/09/08 03:57:11;;;;;;;1.08;1.08;;;13.80;99.90;;;;;;5058964;28;20071;-80
2023/09/08 03:59:37;;;;;;;5.68;5.47;;;13.80;99.90;;;;;;5060497;28;20028;-78
2023/09/08 04:02:03;;;;;;;0.10;0.10;;;13.80;99.90;;;;;;5059335;28;20654;-87
2023/09/08 04:04:29;;;;;;;0.20;0.20;;;13.80;99.90;;;;;;5060787;28;20036;-80
2023/09/08 04:06:54;;;;;;;0.10;0.10;;;13.80;99.90;;;;;;5060191;28;20368;-78
2023/09/08 04:09:20;;;;;;;0.10;0.10;;;13.80;99.90;;;;;;5060051;28;20053;-78
2023/09/08 04:11:46;;;;;;;0.10;0.10;;;13.80;99.90;;;;;;5060681;28;20426;-77
2023/09/08 04:14:12;;;;;;;0.00;0.00;;;13.80;99.90;;;;;;5058545;28;20029;-77
2023/09/08 04:16:38;;;;;;;0.10;0.10;;;13.70;99.90;;;;;;5061161;28;20017;-79
2023/09/08 04:19:03;;;;;;;0.10;0.10;;;13.70;99.90;;;;;;5043486;28;20686;-82
2023/09/08 04:21:29;;;;;;;0.10;0.10;;;13.60;99.90;;;;;;5062642;28;20021;-82
2023/09/08 04:23:55;;;;;;;0.10;0.10;;;13.70;99.90;;;;;;5042357;28;20508;-84
2023/09/08 04:26:21;;;;;;;0.10;0.10;;;13.60;99.90;;;;;;5040189;28;20047;-80
2023/09/08 04:28:46;;;;;;;0.10;0.10;;;13.60;99.90;;;;;;5059654;28;20032;-81
2023/09/08 04:31:12;;;;;;;0.10;0.10;;;14.20;99.90;;;;;;5039745;28;20329;-86
2023/09/08 04:33:39;;;;;;;0.10;0.10;;;13.50;99.90;;;;;;5059052;28;20032;-83
2023/09/08 04:36:04;;;;;;;0.20;0.20;;;13.60;99.90;;;;;;5050513;28;20032;-82
2023/09/08 04:38:30;;;;;;;0.30;0.30;;;13.60;99.90;;;;;;5058135;28;20025;-82
2023/09/08 04:40:56;;;;;;;0.10;0.10;;;13.60;99.90;;;;;;5058358;28;20019;-77
2023/09/08 04:43:22;;;;;;;0.00;0.00;;;13.50;99.90;;;;;;5060776;28;20632;-77
2023/09/08 04:45:48;;;;;;;0.10;0.10;;;;;;;;;;5060362;28;20506;-77
2023/09/08 04:48:14;;;;;;;1.75;1.65;;;13.50;99.90;;;;;;5060099;28;20343;-76
2023/09/08 04:50:39;;;;;;;10.27;9.52;;;13.50;99.90;;;;;;5060425;28;20185;-76
2023/09/08 04:53:05;;;;;;;0.03;0.03;;;13.50;99.90;;;;;;5060525;28;20035;-77
2023/09/08 04:55:31;;;;;;;5.97;5.68;;;13.50;99.90;;;;;;5060795;28;20191;-78
2023/09/08 04:57:57;;;;;;;1.35;1.27;;;11.10;99.90;;;;;;5061768;28;20538;-78
2023/09/08 05:00:23;;;;;;;0.10;0.10;;;13.50;99.90;;;;;;5028337;28;20086;-82
2023/09/08 05:02:48;;;;;;;0.10;0.10;;;13.50;99.90;;;;;;5067688;28;20497;-78
2023/09/08 05:05:14;;;;;;;0.10;0.10;;;13.50;99.90;;;;;;5055251;28;20021;-78
2023/09/08 05:07:40;;;;;;;0.10;0.10;;;13.60;99.90;;;;;;5058716;28;20040;-77
2023/09/08 05:10:09;;;;;;;0.10;0.10;;;13.50;99.90;;;;;;5060506;28;20499;-77
2023/09/08 05:12:35;;;;;;;0.10;0.10;;;14.20;99.90;;;;;;5061905;28;20039;-78
2023/09/08 05:15:06;;;;;;;0.10;0.10;;;13.60;99.90;;;;;;5061417;28;20029;-79
2023/09/08 05:17:32;;;;;;;0.10;0.10;;;13.70;99.90;;;;;;5062571;28;20272;-77
2023/09/08 05:19:58;;;;;;;0.10;0.10;;;13.60;99.90;;;;;;5062857;28;20029;-84
2023/09/08 05:22:24;;;;;;;0.10;0.10;;;13.60;99.90;;;;;;5063502;28;20661;-81
2023/09/08 05:24:49;;;;;;;0.10;0.10;;;13.70;99.90;;;;;;5063198;28;20465;-87
2023/09/08 05:27:15;;;;;;;0.03;0.03;;;13.70;99.90;;;;;;5063518;28;20052;-83
2023/09/08 05:29:41;;;;;;;0.10;0.10;;;13.80;99.90;;;;;;5045240;28;20175;-80
2023/09/08 05:32:07;;;;;;;0.10;0.10;;;14.60;99.90;;;;;;5062867;28;20256;-77
2023/09/08 05:34:32;;;;;;;0.10;0.10;;;14.00;99.90;;;;;;5046957;28;20556;-80
2023/09/08 05:36:58;;;;;;;0.10;0.10;;;14.00;99.90;;;;;;5066826;28;20021;-81
2023/09/08 05:39:24;;;;;;;0.10;0.10;;;14.00;99.90;;;;;;5063989;28;20032;-80
2023/09/08 05:41:49;;;;;;;0.10;0.10;;;14.10;99.90;;;;;;5061650;28;20017;-77
2023/09/08 05:44:15;;;;;;;0.10;0.10;;;14.10;99.90;;;;;;5060045;28;20702;-77
2023/09/08 05:46:41;;;;;;;0.10;0.10;;;14.20;99.90;;;;;;5061619;28;20393;-78
2023/09/08 05:49:07;;;;;;;0.00;0.00;;;14.30;99.90;;;;;;5060669;28;20070;-83
2023/09/08 05:51:33;;;;;;;0.10;0.10;;;14.40;99.90;;;;;;5060988;28;20028;-78
2023/09/08 05:53:59;;;;;;;0.25;0.25;;;;;;;;;;5062846;28;20286;-77
2023/09/08 05:56:30;;;;;;;0.45;0.45;;;14.60;99.90;;;;;;5062030;28;20301;-86
2023/09/08 05:58:56;;;;;;;3.20;3.08;;;15.30;99.90;;;;;;5061572;28;20025;-84
2023/09/08 06:01:22;;;;;;;0.20;0.20;;;14.80;99.90;;;;;;5042697;28;20031;-80
2023/09/08 06:03:47;;;;;;;0.10;0.10;;;15.00;99.90;;;;;;5042740;28;20060;-87
2023/09/08 06:06:13;;;;;;;2.00;1.85;;;15.10;99.90;;;;;;5059935;28;20021;-83
2023/09/08 06:08:39;;;;;;;0.03;0.03;;;15.10;99.90;;;;;;5063549;28;20052;-83
2023/09/08 06:11:04;;;;;;;0.00;0.00;;;15.20;99.90;;;;;;5044133;28;20054;-78
2023/09/08 06:13:30;;;;;;;0.00;0.00;;;15.40;99.90;;;;;;5043424;28;20490;-81
2023/09/08 06:15:56;;;;;;;1.20;1.15;;;15.50;99.90;;;;;;5060613;28;20016;-77
2023/09/08 06:18:24;;;;;;;0.90;0.90;;;;;;;;;;5059355;28;20021;-79
2023/09/08 06:20:52;;;;;;;0.75;0.75;;;15.60;99.90;;;;;;5059232;28;20028;-75
2023/09/08 06:23:20;;;;;;;0.10;0.10;;;15.80;99.90;;;;;;5060522;28;20021;-84
2023/09/08 06:25:46;;;;;;;0.45;0.38;;;15.90;99.90;;;;;;5059674;28;20073;-77
2023/09/08 06:28:12;;;;;;;0.00;0.00;;;16.00;99.90;;;;;;5058891;28;20029;-80
2023/09/08 06:30:41;;;;;;;0.08;0.08;;;16.00;99.90;;;;;;5058264;28;20039;-77
2023/09/08 06:33:08;;;;;;;0.50;0.50;;;16.20;99.90;;;;;;5039845;28;20059;-77
2023/09/08 06:35:34;;;;;;;0.10;0.10;;;16.30;99.90;;;;;;5058538;28;20430;-77
2023/09/08 06:38:00;;;;;;;0.00;0.00;;;16.30;99.90;;;;;;5061883;28;20483;-78
2023/09/08 06:40:37;;;;;;;0.20;0.20;;;16.40;99.90;;;;;;5058419;28;20036;-75
2023/09/08 06:43:09;;;;;;;0.08;0.08;;;16.50;99.90;;;;;;5043373;28;20074;-77
2023/09/08 06:45:38;;;;;;;0.00;0.00;;;17.90;99.90;;;;;;5061588;28;20017;-83
2023/09/08 06:48:04;;;;;;;0.00;0.00;;;16.40;99.90;;;;;;5040460;28;20094;-77
2023/09/08 06:50:30;;;;;;;1.67;1.58;;;16.60;99.90;;;;;;5060193;28;20202;-82
2023/09/08 06:52:56;;;;;;;0.35;0.35;;;17.30;99.90;;;;;;5059329;28;20391;-83
2023/09/08 06:55:21;;;;;;;0.22;0.22;;;16.90;99.90;;;;;;5058511;28;20044;-85
2023/09/08 06:57:47;;;;;;;0.10;0.10;;;17.00;99.90;;;;;;5058699;28;20293;-77
2023/09/08 07:00:13;;;;;;;0.00;0.00;;;17.20;99.90;;;;;;5059701;28;20563;-77
2023/09/08 07:02:40;;;;;;;0.20;0.20;;;17.30;99.90;;;;;;5040381;28;20028;-80
2023/09/08 07:05:07;;;;;;;0.85;0.85;;;17.50;99.90;;;;;;5060224;28;20016;-84
2023/09/08 07:07:37;;;;;;;0.00;0.00;;;17.40;99.90;;;;;;5059804;28;20083;-80
2023/09/08 07:10:04;;;;;;;0.10;0.10;;;17.40;99.90;;;;;;5076107;28;20217;-92
2023/09/08 07:12:31;;;;;;;0.00;0.00;;;17.60;99.90;;;;;;5062070;28;20036;-80
2023/09/08 07:14:57;;;;;;;0.25;0.25;;;17.70;99.90;;;;;;5044190;28;20017;-85
2023/09/08 07:17:23;;;;;;;0.10;0.10;;;17.90;99.90;;;;;;5060472;28;20080;-86
2023/09/08 07:19:50;;;;;;;0.00;0.00;;;17.90;99.90;;;;;;5058516;28;20108;-78
2023/09/08 07:22:16;;;;;;;0.00;0.00;;;18.00;99.90;;;;;;5059396;28;20107;-78
2023/09/08 07:24:42;;;;;;;0.20;0.20;;;18.10;99.90;;;;;;5059718;28;20032;-81
2023/09/08 07:27:08;;;;;;;0.10;0.10;;;18.30;99.90;;;;;;5059512;28;20048;-77
2023/09/08 07:29:33;;;;;;;0.08;0.08;;;18.20;99.90;;;;;;5060470;28;20177;-81
2023/09/08 07:32:00;;;;;;;0.00;0.00;;;16.00;99.90;;;;;;5059824;28;20028;-80
2023/09/08 07:34:25;;;;;;;0.10;0.10;;;18.50;99.90;;;;;;5059319;28;20229;-81
2023/09/08 07:36:51;;;;;;;0.40;0.35;;;18.60;99.90;;;;;;5060505;28;20029;-77
2023/09/08 07:39:17;;;;;;;0.00;0.00;;;18.60;99.90;;;;;;5060071;28;20521;-77
2023/09/08 07:41:43;;;;;;;0.93;0.93;;;18.80;99.90;;;;;;5059776;28;20540;-84
2023/09/08 07:44:08;;;;;;;0.00;0.00;;;18.90;99.90;;;;;;5041305;28;20314;-82
2023/09/08 07:46:34;;;;;;;0.17;0.17;;;18.60;99.90;;;;;;5058503;28;20039;-88
2023/09/08 07:49:00;;;;;;;0.00;0.00;;;19.20;99.90;;;;;;5061037;28;20321;-79
2023/09/08 07:51:26;;;;;;;0.10;0.10;;;19.40;99.90;;;;;;5060539;28;20391;-80
2023/09/08 07:53:53;;;;;;;0.20;0.20;;;19.50;99.90;;;;;;5062344;28;20089;-82
2023/09/08 07:56:19;;;;;;;0.30;0.30;;;19.50;99.90;;;;;;5060858;28;20490;-77
2023/09/08 07:58:45;;;;;;;0.13;0.13;;;19.60;99.90;;;;;;5050325;28;20067;-82
2023/09/08 08:01:13;;;;;;;0.03;0.03;;;19.60;99.90;;;;;;5062700;28;20076;-77
2023/09/08 08:03:39;;;;;;;0.08;0.08;;;19.70;99.90;;;;;;5059617;28;20028;-78
2023/09/08 08:06:05;;;;;;;0.90;0.90;;;19.40;99.90;;;;;;5061196;28;20042;-76
2023/09/08 08:08:32;;;;;;;0.00;0.00;;;;;;;;;;5047169;28;20235;-79
2023/09/08 08:10:59;;;;;;;0.10;0.10;;;20.20;99.90;;;;;;5060663;28;20020;-80
2023/09/08 08:13:24;;;;;;;0.00;0.00;;;19.90;99.90;;;;;;5060251;28;20035;-77
2023/09/08 08:15:51;;;;;;;0.10;0.10;;;;;;;;;;5058752;28;20021;-83
2023/09/08 08:18:17;;;;;;;0.20;0.20;;;20.20;99.90;;;;;;5064420;28;20028;-83
2023/09/08 08:20:43;;;;;;;0.32;0.32;;;20.40;99.90;;;;;;5078091;28;20252;-83
2023/09/08 08:23:09;;;;;;;0.10;0.10;;;20.60;99.90;;;;;;5064630;28;20029;-86
2023/09/08 08:25:35;;;;;;;0.57;0.55;;;20.70;99.90;;;;;;5048314;28;20042;-79
2023/09/08 08:28:00;;;;;;;0.00;0.00;;;20.60;99.90;;;;;;5064474;28;20472;-82
2023/09/08 08:30:27;;;;;;;0.05;0.05;;;18.10;99.90;;;;;;5045879;28;20025;-81
2023/09/08 08:32:55;;;;;;;0.00;0.00;;;20.80;99.90;;;;;;5063806;28;20036;-77
2023/09/08 08:35:21;;;;;;;0.00;0.00;;;20.90;99.90;;;;;;5075082;28;20052;-76
2023/09/08 08:37:47;;;;;;;0.00;0.00;;;21.20;99.90;;;;;;5082587;28;20406;-82
2023/09/08 08:40:13;;;;;;;0.17;0.17;;;21.30;99.90;;;;;;5068153;28;20067;-77
2023/09/08 08:42:40;;;;;;;0.68;0.68;;;21.30;99.90;;;;;;5063166;28;20486;-77
2023/09/08 08:45:07;;;;;;;0.05;0.05;;;21.50;99.90;;;;;;5062939;28;20021;-78
2023/09/08 08:47:33;;;;;;;0.10;0.10;;;22.10;99.90;;;;;;5048189;28;20067;-77
2023/09/08 08:50:00;;;;;;;0.00;0.00;;;21.70;99.90;;;;;;5065697;28;20356;-87
2023/09/08 08:52:27;;;;;;;0.30;0.30;;;21.20;99.90;;;;;;5028880;28;20639;-77
2023/09/08 08:54:54;;;;;;;0.95;0.73;;;22.00;99.90;;;;;;5066285;28;20031;-76
2023/09/08 08:57:21;;;;;;;0.08;0.08;;;22.20;99.90;;;;;;5084351;28;20291;-77
2023/09/08 08:59:53;;;;;;;0.10;0.10;;;22.40;99.90;;;;;;5074374;28;20017;-88
2023/09/08 09:02:19;;;;;;;0.10;0.10;;;22.10;99.90;;;;;;5055153;28;20020;-77
2023/09/08 09:04:46;;;;;;;0.35;0.28;;;23.90;99.90;;;;;;5052910;28;20425;-81
2023/09/08 09:07:13;;;;;;;0.10;0.10;;;22.70;99.90;;;;;;5074231;28;20040;-82
2023/09/08 09:09:40;;;;;;;0.00;0.00;;;22.80;99.90;;;;;;5065975;28;20422;-85
2023/09/08 09:12:06;;;;;;;0.00;0.00;;;22.90;99.90;;;;;;5072741;28;20047;-81
2023/09/08 09:14:35;;;;;;;0.00;0.00;;;23.00;99.90;;;;;;5072889;28;20064;-85
2023/09/08 09:17:04;;;;;;;0.00;0.00;;;23.20;99.90;;;;;;5049605;28;20039;-77
2023/09/08 09:19:31;;;;;;;0.00;0.00;;;23.30;99.90;;;;;;5077714;28;20129;-78
2023/09/08 09:21:58;;;;;;;0.00;0.00;;;23.40;99.90;;;;;;5049605;28;20024;-76
2023/09/08 09:24:40;;;;;;;1.05;0.95;;;23.50;99.90;;;;;;5047122;28;20032;-85
2023/09/08 09:27:07;;;;;;;0.82;0.80;;;23.60;99.90;;;;;;5034518;28;20130;-77
2023/09/08 09:29:34;;;;;;;0.32;0.32;;;24.30;99.90;;;;;;5067940;28;20020;-88
2023/09/08 09:32:05;;;;;;;0.10;0.10;;;23.80;99.90;;;;;;5050059;28;20390;-81
2023/09/08 09:34:32;;;;;;;0.00;0.00;;;23.90;99.90;;;;;;5053773;28;20663;-77
2023/09/08 09:36:58;;;;;;;0.08;0.08;;;;;;;;;;5065632;28;20024;-77
2023/09/08 09:39:25;;;;;;;0.55;0.52;;;24.20;99.90;;;;;;5068942;28;20017;-80
2023/09/08 09:41:58;;;;;;;0.63;0.55;;;24.30;99.90;;;;;;5068972;28;20017;-78
2023/09/08 09:44:25;;;;;;;0.05;0.05;;;24.40;99.60;;;;;;5065169;28;20040;-86
2023/09/08 09:46:54;;;;;;;0.00;0.00;;;24.40;99.30;;;;;;5051723;28;20058;-77
2023/09/08 09:49:20;;;;;;;0.17;0.17;;;24.60;99.00;;;;;;5052129;28;20032;-81
2023/09/08 09:51:52;;;;;;;0.00;0.00;;;24.70;99.00;;;;;;5049498;28;20279;-78
2023/09/08 09:54:19;;;;;;;0.65;0.52;;;24.90;98.10;;;;;;5062960;28;20080;-86
2023/09/08 09:56:48;;;;;;;0.10;0.10;;;25.00;97.10;;;;;;5047335;28;20078;-76
2023/09/08 09:59:14;;;;;;;0.03;0.03;;;25.20;96.50;;;;;;5044106;28;20024;-77
2023/09/08 10:01:42;;;;;;;0.95;0.95;;;25.40;96.10;;;;;;5075779;28;20390;-80
2023/09/08 10:04:08;;;;;;;0.30;0.30;;;25.70;96.00;;;;;;5045937;28;20468;-79
2023/09/08 10:06:36;;;;;;;0.05;0.05;;;25.90;95.40;;;;;;5063644;28;20024;-83
2023/09/08 10:09:05;;;;;;;0.15;0.15;;;26.10;93.60;;;;;;5065383;28;20062;-77
2023/09/08 10:12:03;;;;;;;0.00;0.00;;;26.30;94.20;;;;;;5065511;28;20024;-80
2023/09/08 10:14:31;;;;;;;0.00;0.00;;;26.60;93.00;;;;;;4982570;28;20065;-77
2023/09/08 10:17:01;;;;;;;0.13;0.13;;;26.60;91.20;;;;;;4962972;28;20205;-76
2023/09/08 10:19:28;;;;;;;0.35;0.35;;;26.80;91.40;;;;;;4963788;28;20177;-77
2023/09/08 10:22:00;;;;;;;0.00;0.00;;;27.10;91.70;;;;;;4977091;28;20026;-80
2023/09/08 10:24:33;;;;;;;0.00;0.00;;;28.70;88.30;;;;;;4962865;28;20366;-78
2023/09/08 10:27:09;;;;;;;0.00;0.00;;;27.70;83.80;;;;;;4977458;28;20375;-75
2023/09/08 10:29:35;;;;;;;0.10;0.10;;;27.80;80.20;;;;;;4982398;28;20165;-78
2023/09/08 10:32:02;;;;;;;0.10;0.10;;;28.10;79.70;;;;;;4962855;28;20045;-82
2023/09/08 10:34:30;;;;;;;0.32;0.10;;;28.30;79.20;;;;;;4962481;28;20255;-77
2023/09/08 10:36:57;;;;;;;0.20;0.20;;;28.00;77.10;;;;;;4977681;28;20026;-78
2023/09/08 10:39:35;;;;;;;0.00;0.00;;;28.60;75.30;;;;;;4979101;28;20277;-81
2023/09/08 10:42:16;;;;;;;0.00;0.00;;;28.70;76.30;;;;;;4982208;28;20287;-77
2023/09/08 10:44:49;;;;;;;0.00;0.00;;;28.90;74.40;;;;;;4979529;28;20038;-78
2023/09/08 10:47:24;;;;;;;0.28;0.10;;;28.90;76.90;;;;;;4979471;28;20272;-76
2023/09/08 10:49:53;;;;;;;0.03;0.03;;;29.00;72.90;;;;;;4968347;28;20054;-82
2023/09/08 10:52:22;;;;;;;0.00;0.00;;;29.10;74.40;;;;;;5027031;28;20029;-78
2023/09/08 10:54:49;;;;;;;0.00;0.00;;;29.10;74.30;;;;;;5043427;28;20047;-79
2023/09/08 10:57:18;;;;;;;0.00;0.00;;;29.40;69.40;;;;;;5042846;28;20049;-81
2023/09/08 10:59:54;;;;;;;0.80;0.20;;;29.40;68.00;;;;;;5022539;28;20024;-79
2023/09/08 11:02:38;;;;;;;0.28;0.15;;;29.10;67.50;;;;;;5040307;28;20029;-76
2023/09/08 11:05:16;;;;;;;0.00;0.00;;;29.60;69.20;;;;;;5039245;28;20028;-80
2023/09/08 11:07:43;;;;;;;0.10;0.10;;;29.30;66.50;;;;;;5039713;28;20453;-81
2023/09/08 11:10:10;;;;;;;0.70;0.70;;;29.40;66.90;;;;;;5039482;28;20151;-88
2023/09/08 11:12:36;;;;;;;0.00;0.00;;;31.10;68.90;;;;;;5039532;28;20136;-81
2023/09/08 11:15:05;;;;;;;0.55;0.55;;;29.50;67.20;;;;;;5022712;28;20547;-78
2023/09/08 11:17:32;;;;;;;0.00;0.00;;;29.60;66.40;;;;;;5023300;28;20183;-79
2023/09/08 11:19:58;;;;;;;0.10;0.10;;;29.70;66.00;;;;;;5039890;28;20245;-77
2023/09/08 11:22:25;;;;;;;0.10;0.10;;;28.90;64.70;;;;;;5039219;28;20026;-81
2023/09/08 11:25:04;;;;;;;1.30;1.00;;;29.80;65.90;;;;;;5039421;28;20024;-76
2023/09/08 11:27:31;;;;;;;0.10;0.10;;;29.40;64.10;;;;;;5030426;28;20561;-77
2023/09/08 11:29:57;;;;;;;0.00;0.00;;;29.10;64.30;;;;;;5039360;28;20024;-76
2023/09/08 11:32:24;;;;;;;0.10;0.10;;;29.30;65.40;;;;;;5037395;28;20317;-75
2023/09/08 11:34:50;;;;;;;1.70;0.35;;;29.60;65.50;;;;;;5038024;28;20146;-79
2023/09/08 11:37:18;;;;;;;0.10;0.10;;;29.80;64.50;;;;;;5040747;28;20227;-79
2023/09/08 11:39:45;;;;;;;0.00;0.00;;;30.10;63.30;;;;;;5039583;28;20049;-80
2023/09/08 11:42:14;;;;;;;0.08;0.08;;;29.90;63.30;;;;;;5042359;28;20037;-76
2023/09/08 11:44:41;;;;;;;0.00;0.00;;;30.30;63.50;;;;;;5041911;28;20301;-78
2023/09/08 11:47:09;;;;;;;0.10;0.10;;;30.40;65.00;;;;;;5040645;28;20021;-76
2023/09/08 11:49:39;;;;;;;0.77;0.65;;;30.60;63.60;;;;;;5058139;28;20383;-76
2023/09/08 11:52:06;;;;;;;0.22;0.10;;;30.70;62.00;;;;;;5045527;28;20033;-76
2023/09/08 11:54:34;;;;;;;0.25;0.25;;;30.70;61.80;;;;;;5042946;28;20560;-80
2023/09/08 11:57:01;;;;;;;0.00;0.00;;;30.50;62.50;;;;;;5044393;28;20387;-76
2023/09/08 11:59:33;;;;;;;0.00;0.00;;;30.50;61.60;;;;;;5043780;28;20392;-79
2023/09/08 12:01:59;;;;;;;0.00;0.00;;;30.40;61.70;;;;;;5044466;28;20023;-80
2023/09/08 12:04:25;;;;;;;0.10;0.10;;;30.60;62.90;;;;;;5046037;28;20213;-76
2023/09/08 12:06:53;;;;;;;0.00;0.00;;;30.90;63.30;;;;;;5043990;28;20049;-81
2023/09/08 12:09:22;;;;;;;0.10;0.10;;;31.20;62.00;;;;;;5045187;28;20036;-77
2023/09/08 12:11:48;;;;;;;0.00;0.00;;;31.50;60.30;;;;;;5042181;28;20029;-76
2023/09/08 12:14:17;;;;;;;2.30;1.65;;;31.70;60.70;;;;;;5040289;28;20043;-76
2023/09/08 12:16:43;;;;;;;1.45;1.45;;;31.00;60.00;;;;;;5043344;28;20471;-76
2023/09/08 12:19:29;;;;;;;0.00;0.00;;;31.80;60.20;;;;;;5042521;28;20048;-82
2023/09/08 12:22:02;;;;;;;0.00;0.00;;;32.10;59.50;;;;;;5040907;28;20048;-77
2023/09/08 12:24:46;;;;;;;;;;;31.80;58.30;;;;;;5041882;28;20028;-78
2023/09/08 12:27:12;;;;;;;0.00;0.00;;;32.00;58.20;;;;;;5053867;28;19943;-76
2023/09/08 12:29:38;;;;;;;0.10;0.10;;;31.90;59.60;;;;;;5063256;28;20410;-78
2023/09/08 12:32:04;;;;;;;0.00;0.00;;;32.00;59.20;;;;;;5062899;28;20024;-76
2023/09/08 12:34:30;;;;;;;0.00;0.00;;;32.00;59.30;;;;;;5063001;28;20036;-79
2023/09/08 12:36:56;;;;;;;0.10;0.10;;;32.30;58.20;;;;;;5063029;28;20103;-76
2023/09/08 12:39:22;;;;;;;0.00;0.00;;;32.50;58.80;;;;;;5045416;28;20461;-76
2023/09/08 12:41:48;;;;;;;0.50;0.50;;;;;;;;;;5062834;28;20032;-76
2023/09/08 12:44:14;;;;;;;0.03;0.03;;;32.20;57.80;;;;;;5048308;28;20043;-78
2023/09/08 12:46:39;;;;;;;0.20;0.20;;;32.40;58.20;;;;;;5064356;28;20021;-81
2023/09/08 12:49:05;;;;;;;0.20;0.20;;;32.40;59.70;;;;;;5063053;28;20106;-87
2023/09/08 12:51:31;;;;;;;0.05;0.05;;;32.60;58.50;;;;;;5043822;28;20024;-76